Time;durP1;ratioP1;P1;durP2;ratioP2;P2;SDS_P1;SDS_P2;PMS_P1;PMS_P2;Temp;Humidity;BMP_temperature;BMP_pressure;BME280_temperature;BME280_humidity;BME280_pressure;Samples;Min_cycle;Max_cycle;Signal;HPM_P1;HPM_P2
2022/05/10 00:00:54;;;;;;;9.38;8.77;;;18.00;48.20;;;;;;20544;6832;308953;-70
2022/05/10 00:03:18;;;;;;;9.00;8.50;;;17.90;48.10;;;;;;20755;6830;117443;-70
2022/05/10 00:05:44;;;;;;;8.17;7.77;;;17.80;47.90;;;;;;20771;6831;117295;-71
2022/05/10 00:08:09;;;;;;;7.97;7.47;;;17.60;48.40;;;;;;20751;6831;116809;-71
2022/05/10 00:10:35;;;;;;;7.97;7.53;;;17.40;48.70;;;;;;20751;6832;116959;-71
2022/05/10 00:13:00;;;;;;;9.30;8.57;;;17.20;48.80;;;;;;20547;6832;310447;-71
2022/05/10 00:15:26;;;;;;;7.90;7.40;;;17.40;48.80;;;;;;20724;6832;117395;-70
2022/05/10 00:17:52;;;;;;;8.50;8.03;;;17.50;48.60;;;;;;20528;6832;277438;-70
2022/05/10 00:20:18;;;;;;;8.20;7.70;;;17.60;49.10;;;;;;20760;6832;117474;-70
2022/05/10 00:22:43;;;;;;;8.57;7.87;;;17.60;48.40;;;;;;20737;6832;116922;-70
2022/05/10 00:25:09;;;;;;;8.77;8.07;;;17.40;48.50;;;;;;20757;6832;116924;-70
2022/05/10 00:27:35;;;;;;;9.50;8.90;;;17.40;49.60;;;;;;20523;6832;278421;-70
2022/05/10 00:30:01;;;;;;;8.80;8.20;;;17.40;48.90;;;;;;20735;6832;117971;-71
2022/05/10 00:32:27;;;;;;;8.40;8.00;;;17.70;49.10;;;;;;20537;6832;302610;-70
2022/05/10 00:34:53;;;;;;;9.13;8.63;;;17.70;49.80;;;;;;20532;6832;306475;-70
2022/05/10 00:37:18;;;;;;;9.23;8.70;;;18.00;48.10;;;;;;20547;6832;281236;-71
2022/05/10 00:39:44;;;;;;;8.35;7.95;;;18.20;47.60;;;;;;20530;6832;277983;-71
2022/05/10 00:42:13;;;;;;;7.97;7.47;;;18.40;47.50;;;;;;20733;6832;117014;-70
2022/05/10 00:44:49;;;;;;;9.07;8.47;;;18.20;47.60;;;;;;20534;6832;310112;-71
2022/05/10 00:47:17;;;;;;;9.30;8.73;;;18.20;47.80;;;;;;20738;6832;118564;-70
2022/05/10 00:49:42;;;;;;;8.63;8.13;;;18.00;48.00;;;;;;20749;6832;116883;-70
2022/05/10 00:52:14;;;;;;;8.73;8.23;;;17.70;48.40;;;;;;20721;6832;118043;-70
2022/05/10 00:55:06;;;;;;;8.73;8.10;;;17.50;48.60;;;;;;20703;6832;117367;-70
2022/05/10 00:57:44;;;;;;;8.53;7.83;;;17.30;49.00;;;;;;20746;6832;116937;-70
2022/05/10 01:00:16;;;;;;;9.35;8.80;;;17.10;49.20;;;;;;20439;6832;312938;-71
2022/05/10 01:02:45;;;;;;;10.02;9.48;;;17.30;49.40;;;;;;20531;6832;335902;-71
2022/05/10 01:05:11;;;;;;;8.97;8.47;;;17.70;48.70;;;;;;20749;6832;117070;-70
2022/05/10 01:07:37;;;;;;;9.82;9.23;;;17.70;48.90;;;;;;20536;6832;277098;-70
2022/05/10 01:10:12;;;;;;;8.90;8.40;;;17.70;48.90;;;;;;20714;6832;117143;-70
2022/05/10 01:12:45;;;;;;;8.63;7.93;;;17.60;48.80;;;;;;20724;6832;119557;-70
2022/05/10 01:15:10;;;;;;;8.07;7.67;;;17.30;49.20;;;;;;20744;6830;117081;-70
2022/05/10 01:17:36;;;;;;;8.60;8.10;;;16.90;50.70;;;;;;20742;6831;116733;-70
2022/05/10 01:20:06;;;;;;;10.43;9.73;;;16.80;49.70;;;;;;20505;6831;310316;-71
2022/05/10 01:22:54;;;;;;;9.67;9.10;;;17.10;49.80;;;;;;20535;6832;277991;-71
2022/05/10 01:25:55;;;;;;;8.77;8.27;;;17.40;49.40;;;;;;20744;6832;117687;-71
2022/05/10 01:28:24;;;;;;;9.47;8.87;;;17.20;49.30;;;;;;20731;6832;119309;-71
2022/05/10 01:30:49;;;;;;;9.43;8.83;;;16.90;49.60;;;;;;20531;6832;277550;-71
2022/05/10 01:33:31;;;;;;;9.30;8.80;;;17.10;49.90;;;;;;20549;6832;307663;-70
2022/05/10 01:36:17;;;;;;;9.00;8.50;;;17.40;49.40;;;;;;20736;6832;116916;-71
2022/05/10 01:38:45;;;;;;;8.73;8.23;;;17.20;49.20;;;;;;20727;6832;117005;-70
2022/05/10 01:41:23;;;;;;;10.20;9.50;;;16.90;50.10;;;;;;20506;6832;306511;-70
2022/05/10 01:44:02;;;;;;;9.00;8.50;;;17.00;49.60;;;;;;20730;6832;118082;-71
2022/05/10 01:46:27;;;;;;;8.90;8.27;;;16.90;49.60;;;;;;20742;6832;117010;-71
2022/05/10 01:48:54;;;;;;;8.73;8.13;;;16.40;50.30;;;;;;20724;6832;117219;-71
2022/05/10 01:51:19;;;;;;;10.10;9.50;;;16.40;50.30;;;;;;20486;6832;328007;-71
2022/05/10 01:53:45;;;;;;;10.27;9.50;;;16.70;50.40;;;;;;20630;6832;116987;-70
2022/05/10 01:56:10;;;;;;;10.47;9.87;;;16.70;50.10;;;;;;20531;6832;282132;-70
2022/05/10 01:58:36;;;;;;;10.40;9.80;;;16.80;50.10;;;;;;20526;6832;286642;-71
2022/05/10 02:01:02;;;;;;;10.02;9.32;;;17.10;50.10;;;;;;20511;6832;306919;-71
2022/05/10 02:03:28;;;;;;;10.43;9.75;;;17.40;49.90;;;;;;20529;6832;302719;-71
2022/05/10 02:05:53;;;;;;;9.43;8.80;;;17.40;49.40;;;;;;20703;6832;122109;-71
2022/05/10 02:08:23;;;;;;;8.93;8.50;;;16.80;50.00;;;;;;20737;6832;117129;-70
2022/05/10 02:10:48;;;;;;;9.77;9.23;;;16.70;49.80;;;;;;20725;6832;121856;-71
2022/05/10 02:13:14;;;;;;;10.68;10.18;;;16.40;50.40;;;;;;20530;6832;282212;-70
2022/05/10 02:15:39;;;;;;;9.77;9.18;;;16.50;50.80;;;;;;20744;6832;117735;-70
2022/05/10 02:18:15;;;;;;;10.07;9.33;;;16.40;51.40;;;;;;20723;6832;116879;-71
2022/05/10 02:20:42;;;;;;;12.07;11.43;;;16.30;51.60;;;;;;20522;6832;315682;-71
2022/05/10 02:23:10;;;;;;;11.27;10.57;;;16.30;51.60;;;;;;20742;6832;117154;-70
2022/05/10 02:25:39;;;;;;;12.90;12.10;;;16.20;51.40;;;;;;20528;6832;276717;-71
2022/05/10 02:28:31;;;;;;;12.47;11.27;;;16.30;51.70;;;;;;20723;6830;119561;-71
2022/05/10 02:30:56;;;;;;;13.62;12.73;;;16.20;51.60;;;;;;20525;6831;336396;-71
2022/05/10 02:33:22;;;;;;;13.50;12.70;;;16.40;51.90;;;;;;20536;6832;277584;-71
2022/05/10 02:35:47;;;;;;;11.30;10.47;;;16.70;52.30;;;;;;20741;6832;117949;-71
2022/05/10 02:38:13;;;;;;;13.07;12.27;;;16.50;51.50;;;;;;20515;6832;299257;-71
2022/05/10 02:40:41;;;;;;;12.37;11.67;;;16.60;51.50;;;;;;20543;6832;306640;-71
2022/05/10 02:43:04;;;;;;;12.10;11.40;;;16.80;50.80;;;;;;20539;6832;276667;-71
2022/05/10 02:45:30;;;;;;;12.50;11.80;;;16.90;50.40;;;;;;20555;6832;281019;-71
2022/05/10 02:47:55;;;;;;;11.80;11.10;;;17.00;50.20;;;;;;20746;6832;152587;-71
2022/05/10 02:50:31;;;;;;;23.23;19.17;;;16.80;50.40;;;;;;20763;6832;117780;-70
2022/05/10 02:52:56;;;;;;;26.23;23.47;;;16.40;50.90;;;;;;20546;6832;310935;-71
2022/05/10 02:55:22;;;;;;;20.53;18.63;;;16.50;51.40;;;;;;20557;6832;294952;-71
2022/05/10 02:57:48;;;;;;;14.73;13.62;;;16.80;51.00;;;;;;20518;6832;308874;-71
2022/05/10 03:00:13;;;;;;;12.02;11.12;;;17.00;50.40;;;;;;20723;6832;122108;-71
2022/05/10 03:02:39;;;;;;;12.03;11.23;;;16.50;51.00;;;;;;20753;6832;117188;-70
2022/05/10 03:05:06;;;;;;;10.90;10.30;;;16.40;50.90;;;;;;20736;6832;117279;-71
2022/05/10 03:07:31;;;;;;;11.63;10.73;;;16.20;51.30;;;;;;20753;6832;117245;-71
2022/05/10 03:09:56;;;;;;;10.50;9.87;;;16.00;51.70;;;;;;20741;6832;117723;-71
2022/05/10 03:12:22;;;;;;;11.80;11.00;;;15.80;52.00;;;;;;20754;6832;118091;-71
2022/05/10 03:14:49;;;;;;;11.53;10.63;;;15.70;52.20;;;;;;20764;6832;117848;-71
2022/05/10 03:17:14;;;;;;;9.47;8.87;;;15.60;52.30;;;;;;20752;6832;117274;-71
2022/05/10 03:19:41;;;;;;;9.33;8.73;;;15.50;52.80;;;;;;20759;6832;117265;-71
2022/05/10 03:22:07;;;;;;;10.90;10.30;;;15.40;52.80;;;;;;20510;6832;277517;-72
2022/05/10 03:24:32;;;;;;;12.10;11.40;;;15.70;52.70;;;;;;20522;6832;280763;-69
2022/05/10 03:26:58;;;;;;;11.00;10.27;;;16.20;51.40;;;;;;20758;6832;117372;-69
2022/05/10 03:29:25;;;;;;;9.63;9.13;;;16.10;51.10;;;;;;20745;6832;119899;-69
2022/05/10 03:31:49;;;;;;;11.32;10.63;;;15.80;51.50;;;;;;20526;6832;278192;-68
2022/05/10 03:37:00;;;;;;;11.23;10.43;;;16.20;51.00;;;;;;20750;6832;117258;-70
2022/05/10 03:39:25;;;;;;;10.20;9.60;;;15.90;50.80;;;;;;20744;6830;117096;-70
2022/05/10 03:41:51;;;;;;;11.90;11.13;;;15.60;51.20;;;;;;20519;6831;306128;-71
2022/05/10 03:44:17;;;;;;;11.93;11.20;;;15.90;51.30;;;;;;20546;6831;295946;-70
2022/05/10 03:46:45;;;;;;;11.85;11.15;;;16.00;51.40;;;;;;20550;6832;335940;-70
2022/05/10 03:49:11;;;;;;;12.53;11.77;;;16.20;51.00;;;;;;20547;6832;283857;-70
2022/05/10 03:51:37;;;;;;;12.27;11.57;;;16.30;50.40;;;;;;20548;6832;281659;-72
2022/05/10 03:54:02;;;;;;;11.88;11.18;;;16.40;50.10;;;;;;20518;6832;277060;-70
2022/05/10 03:56:28;;;;;;;11.13;10.33;;;16.50;50.10;;;;;;20755;6832;117868;-71
2022/05/10 03:58:54;;;;;;;12.23;11.30;;;15.70;51.20;;;;;;20764;6832;118112;-70
2022/05/10 04:01:20;;;;;;;11.27;10.57;;;15.70;51.10;;;;;;20761;6832;117223;-70
2022/05/10 04:03:45;;;;;;;13.23;12.43;;;15.50;51.70;;;;;;20555;6832;307216;-70
2022/05/10 04:06:11;;;;;;;11.80;11.13;;;15.60;51.80;;;;;;20741;6832;118037;-70
2022/05/10 04:08:37;;;;;;;12.13;11.38;;;15.60;51.80;;;;;;20549;6832;336883;-70
2022/05/10 04:11:03;;;;;;;11.40;10.60;;;15.50;51.70;;;;;;20752;6832;117261;-70
2022/05/10 04:13:30;;;;;;;11.30;10.50;;;15.40;51.70;;;;;;20758;6832;117304;-70
2022/05/10 04:15:55;;;;;;;12.75;11.85;;;15.20;52.10;;;;;;20524;6832;308828;-70
2022/05/10 04:18:22;;;;;;;12.57;11.87;;;15.60;51.80;;;;;;20542;6832;278139;-70
2022/05/10 04:20:48;;;;;;;12.15;11.45;;;15.90;51.20;;;;;;20542;6832;308716;-70
2022/05/10 04:23:14;;;;;;;12.10;11.40;;;15.90;51.20;;;;;;20757;6832;117181;-70
2022/05/10 04:25:40;;;;;;;11.33;10.43;;;15.40;51.70;;;;;;20760;6832;118024;-71
2022/05/10 04:28:06;;;;;;;12.82;11.93;;;15.40;51.70;;;;;;20522;6832;307878;-71
2022/05/10 04:30:31;;;;;;;12.70;12.00;;;15.40;51.70;;;;;;20545;6832;335707;-71
2022/05/10 04:32:57;;;;;;;11.18;10.48;;;15.70;51.50;;;;;;20760;6832;117787;-71
2022/05/10 04:35:24;;;;;;;13.05;12.20;;;15.60;51.50;;;;;;20543;6832;335556;-70
2022/05/10 04:37:50;;;;;;;12.50;11.80;;;15.60;51.50;;;;;;20541;6832;335995;-69
2022/05/10 04:43:01;;;;;;;12.90;12.00;;;16.00;50.90;;;;;;20563;6832;277032;-70
2022/05/10 04:45:27;;;;;;;13.05;12.15;;;16.10;50.40;;;;;;20542;6832;309737;-72
2022/05/10 04:47:52;;;;;;;13.07;12.18;;;16.20;50.30;;;;;;20534;6832;310348;-72
2022/05/10 04:50:18;;;;;;;12.63;11.82;;;16.30;50.30;;;;;;20548;6830;311047;-73
2022/05/10 04:52:44;;;;;;;12.60;11.80;;;16.40;50.40;;;;;;20549;6831;304283;-71
2022/05/10 04:55:09;;;;;;;12.43;11.63;;;16.30;50.30;;;;;;20756;6831;117204;-75
2022/05/10 04:57:35;;;;;;;12.63;11.93;;;16.10;50.70;;;;;;20542;6832;336339;-71
2022/05/10 05:00:00;;;;;;;13.73;12.83;;;16.00;50.90;;;;;;20531;6832;281092;-72
2022/05/10 05:02:26;;;;;;;13.98;13.07;;;16.20;50.80;;;;;;20546;6832;306964;-72
2022/05/10 05:04:52;;;;;;;13.03;12.17;;;16.30;50.50;;;;;;20758;6832;117157;-69
2022/05/10 05:07:18;;;;;;;13.30;12.47;;;15.80;51.50;;;;;;20760;6832;117673;-70
2022/05/10 05:09:43;;;;;;;12.50;11.80;;;15.80;51.50;;;;;;20747;6832;117700;-69
2022/05/10 05:12:10;;;;;;;13.03;12.23;;;15.70;52.50;;;;;;20531;6832;327911;-69
2022/05/10 05:14:35;;;;;;;12.53;11.73;;;15.70;52.50;;;;;;20754;6832;117357;-71
2022/05/10 05:17:01;;;;;;;12.53;11.67;;;15.70;52.40;;;;;;20754;6832;117790;-70
2022/05/10 05:19:26;;;;;;;13.60;12.80;;;15.50;52.50;;;;;;20546;6832;278012;-69
2022/05/10 05:21:52;;;;;;;13.70;12.90;;;15.70;52.60;;;;;;20520;6832;311530;-70
2022/05/10 05:24:18;;;;;;;12.50;11.77;;;16.10;52.20;;;;;;20762;6832;117796;-70
2022/05/10 05:26:43;;;;;;;12.43;11.70;;;16.10;52.10;;;;;;20753;6832;118051;-69
2022/05/10 05:29:09;;;;;;;13.43;12.57;;;15.90;52.30;;;;;;20553;6832;277104;-70
2022/05/10 05:31:34;;;;;;;13.90;12.90;;;16.10;52.40;;;;;;20535;6832;306549;-70
2022/05/10 05:34:00;;;;;;;12.60;11.90;;;16.50;52.00;;;;;;20760;6832;117920;-73
2022/05/10 05:36:25;;;;;;;13.20;12.40;;;16.40;51.80;;;;;;20555;6832;306133;-70
2022/05/10 05:38:51;;;;;;;12.07;11.37;;;16.60;51.70;;;;;;20765;6832;117608;-72
2022/05/10 05:41:17;;;;;;;12.90;12.05;;;16.50;51.60;;;;;;20553;6832;316231;-70
2022/05/10 05:43:42;;;;;;;12.07;11.25;;;16.70;52.40;;;;;;20751;6832;117177;-70
2022/05/10 05:46:08;;;;;;;13.00;12.20;;;16.70;51.70;;;;;;20531;6832;277614;-74
2022/05/10 05:48:33;;;;;;;12.70;12.00;;;16.90;51.60;;;;;;20557;6832;277941;-70
2022/05/10 05:50:59;;;;;;;13.60;12.77;;;17.20;51.20;;;;;;20544;6832;281836;-70
2022/05/10 05:53:28;;;;;;;12.20;11.40;;;17.60;51.00;;;;;;20763;6832;117289;-69
2022/05/10 05:55:53;;;;;;;13.43;12.47;;;17.50;51.00;;;;;;20517;6832;293575;-71
2022/05/10 05:58:17;;;;;;;12.98;12.27;;;17.60;51.00;;;;;;20553;6832;291564;-69
2022/05/10 06:00:42;;;;;;;12.40;11.57;;;17.80;50.60;;;;;;20763;6832;117541;-69
2022/05/10 06:03:08;;;;;;;11.70;11.00;;;17.80;50.60;;;;;;20755;6830;117259;-69
2022/05/10 06:05:33;;;;;;;12.43;11.57;;;17.60;51.00;;;;;;20550;6831;306548;-69
2022/05/10 06:08:00;;;;;;;12.33;11.63;;;17.80;50.90;;;;;;20524;6832;340480;-69
2022/05/10 06:10:25;;;;;;;11.77;11.07;;;18.10;50.70;;;;;;20546;6832;306150;-69
2022/05/10 06:12:51;;;;;;;11.40;10.70;;;18.50;50.70;;;;;;20753;6831;117831;-69
2022/05/10 06:15:16;;;;;;;12.13;11.40;;;18.40;50.40;;;;;;20557;6832;307360;-70
2022/05/10 06:17:43;;;;;;;12.05;11.38;;;18.90;49.60;;;;;;20554;6832;278397;-68
2022/05/10 06:20:09;;;;;;;11.83;11.10;;;18.80;49.60;;;;;;20521;6832;277874;-68
2022/05/10 06:22:34;;;;;;;10.77;10.10;;;19.20;49.20;;;;;;20763;6832;117552;-69
2022/05/10 06:25:00;;;;;;;11.57;10.90;;;19.10;49.30;;;;;;20549;6832;306572;-69
2022/05/10 06:27:25;;;;;;;10.63;9.93;;;19.30;49.70;;;;;;20772;6832;117664;-69
2022/05/10 06:29:51;;;;;;;11.57;10.98;;;19.30;49.80;;;;;;20549;6832;345783;-72
2022/05/10 06:32:21;;;;;;;11.60;10.80;;;19.80;49.50;;;;;;20572;6832;124574;-69
2022/05/10 06:34:49;;;;;;;10.73;10.03;;;19.80;49.70;;;;;;20734;6832;125034;-72
2022/05/10 06:39:58;;;;;;;10.67;9.80;;;20.00;49.80;;;;;;20740;6832;117656;-69
2022/05/10 06:42:24;;;;;;;11.23;10.40;;;20.20;49.70;;;;;;20547;6832;306310;-69
2022/05/10 06:44:49;;;;;;;10.17;9.33;;;20.80;47.80;;;;;;20767;6832;118001;-69
2022/05/10 06:47:15;;;;;;;10.55;9.95;;;21.30;47.90;;;;;;20774;6832;117508;-70
2022/05/10 06:49:40;;;;;;;10.30;9.50;;;21.50;47.80;;;;;;20765;6832;117399;-70
2022/05/10 06:52:06;;;;;;;10.47;9.83;;;21.70;47.60;;;;;;20734;6832;148639;-70
2022/05/10 06:54:31;;;;;;;10.17;9.67;;;21.90;48.10;;;;;;20546;6832;307873;-70
2022/05/10 06:56:57;;;;;;;9.93;9.23;;;22.20;45.50;;;;;;20761;6832;116980;-70
2022/05/10 06:59:22;;;;;;;10.50;9.80;;;22.40;45.60;;;;;;20550;6832;306862;-70
2022/05/10 07:01:48;;;;;;;9.90;9.20;;;22.60;45.00;;;;;;20768;6832;116985;-70
2022/05/10 07:04:14;;;;;;;9.70;9.10;;;22.80;44.30;;;;;;20525;6832;282245;-69
2022/05/10 07:06:40;;;;;;;9.57;9.07;;;22.80;44.20;;;;;;20762;6832;117319;-69
2022/05/10 07:09:05;;;;;;;10.30;9.40;;;22.80;44.40;;;;;;20554;6832;336019;-72
2022/05/10 07:11:32;;;;;;;9.38;8.60;;;23.10;44.00;;;;;;20762;6832;117056;-70
2022/05/10 07:13:57;;;;;;;9.43;8.70;;;23.00;43.90;;;;;;20749;6830;117171;-69
2022/05/10 07:16:24;;;;;;;9.77;9.03;;;22.90;44.20;;;;;;20777;6831;116930;-74
2022/05/10 07:18:51;;;;;;;10.00;9.40;;;22.80;44.40;;;;;;20556;6831;277322;-69
2022/05/10 07:21:15;;;;;;;10.18;9.48;;;23.00;43.90;;;;;;20550;6832;314971;-69
2022/05/10 07:23:41;;;;;;;8.80;8.30;;;23.30;43.00;;;;;;20769;6832;116961;-69
2022/05/10 07:26:06;;;;;;;9.13;8.57;;;23.40;43.10;;;;;;20534;6832;276579;-69
2022/05/10 07:28:32;;;;;;;9.30;8.60;;;23.50;42.70;;;;;;20547;6832;335630;-69
2022/05/10 07:30:58;;;;;;;9.30;8.70;;;24.00;41.60;;;;;;20552;6832;336029;-69
2022/05/10 07:33:25;;;;;;;9.47;8.87;;;24.00;41.60;;;;;;20763;6832;116819;-70
2022/05/10 07:38:35;;;;;;;9.20;8.55;;;23.70;42.10;;;;;;20547;6832;304671;-70
2022/05/10 07:41:02;;;;;;;9.40;8.60;;;23.90;41.70;;;;;;20765;6832;117459;-71
2022/05/10 07:43:28;;;;;;;8.97;8.27;;;23.90;42.00;;;;;;20747;6832;117842;-70
2022/05/10 07:45:54;;;;;;;8.90;8.20;;;23.80;42.20;;;;;;20501;6832;306137;-74
2022/05/10 07:48:19;;;;;;;8.47;8.00;;;24.10;41.10;;;;;;20736;6832;117994;-74
2022/05/10 07:50:44;;;;;;;8.43;7.82;;;24.20;41.30;;;;;;20544;6832;277914;-71
2022/05/10 07:53:10;;;;;;;8.77;8.13;;;24.40;40.10;;;;;;20739;6832;116980;-70
2022/05/10 07:55:35;;;;;;;8.30;7.80;;;24.40;40.50;;;;;;20544;6832;294923;-70
2022/05/10 07:58:01;;;;;;;8.67;8.07;;;24.60;40.00;;;;;;20736;6832;117451;-70
2022/05/10 08:00:26;;;;;;;8.25;7.65;;;24.60;40.20;;;;;;20549;6832;277489;-70
2022/05/10 08:02:52;;;;;;;8.10;7.60;;;24.80;40.90;;;;;;20550;6832;306085;-71
2022/05/10 08:05:17;;;;;;;7.85;7.15;;;25.20;40.60;;;;;;20549;6832;306123;-69
2022/05/10 08:07:43;;;;;;;7.47;6.90;;;25.60;40.50;;;;;;20752;6832;117694;-69
2022/05/10 08:10:09;;;;;;;7.20;6.80;;;25.60;40.50;;;;;;20735;6832;117248;-69
2022/05/10 08:12:34;;;;;;;7.60;6.90;;;25.50;40.50;;;;;;20751;6832;117100;-69
2022/05/10 08:15:00;;;;;;;8.63;7.00;;;25.40;40.20;;;;;;20741;6832;116903;-69
2022/05/10 08:17:25;;;;;;;7.47;6.93;;;25.30;40.00;;;;;;20760;6832;116866;-69
2022/05/10 08:19:52;;;;;;;7.00;6.60;;;25.30;40.50;;;;;;20759;6832;116971;-69
2022/05/10 08:22:17;;;;;;;7.30;6.72;;;25.20;40.40;;;;;;20359;6832;306772;-69
2022/05/10 08:24:43;;;;;;;7.10;6.60;;;25.60;39.60;;;;;;20553;6830;277095;-69
2022/05/10 08:27:11;;;;;;;7.22;6.62;;;26.60;37.50;;;;;;20541;6831;342430;-69
2022/05/10 08:29:37;;;;;;;7.07;6.57;;;26.50;37.40;;;;;;20747;6831;116798;-69
2022/05/10 08:32:02;;;;;;;7.40;6.90;;;26.70;37.80;;;;;;20731;6832;116962;-69
2022/05/10 08:34:28;;;;;;;7.20;6.70;;;26.60;37.30;;;;;;20546;6832;282740;-69
2022/05/10 08:36:55;;;;;;;7.20;6.70;;;26.90;36.20;;;;;;20537;6832;341432;-70
2022/05/10 08:39:19;;;;;;;6.40;6.10;;;26.90;36.20;;;;;;20754;6832;116800;-69
2022/05/10 08:41:45;;;;;;;6.60;6.20;;;27.00;36.40;;;;;;20558;6832;336198;-69
2022/05/10 08:44:17;;;;;;;6.70;6.30;;;27.10;36.10;;;;;;20730;6832;117273;-71
2022/05/10 08:46:43;;;;;;;6.53;6.03;;;27.10;36.20;;;;;;20540;6832;306095;-69
2022/05/10 08:49:15;;;;;;;6.37;5.90;;;27.50;34.20;;;;;;20541;6832;276982;-68
2022/05/10 08:51:41;;;;;;;6.20;5.70;;;27.50;34.20;;;;;;20308;6832;311053;-69
2022/05/10 08:54:10;;;;;;;6.23;5.90;;;27.80;33.80;;;;;;20742;6832;123005;-69
2022/05/10 08:56:46;;;;;;;5.40;5.10;;;27.80;34.30;;;;;;20758;6832;117102;-69
2022/05/10 08:59:24;;;;;;;5.83;5.43;;;27.60;34.90;;;;;;20755;6832;117256;-70
2022/05/10 09:02:00;;;;;;;6.10;5.80;;;27.70;34.80;;;;;;20542;6832;306518;-68
2022/05/10 09:04:33;;;;;;;6.17;5.60;;;27.70;34.80;;;;;;20734;6832;117988;-68
2022/05/10 09:07:21;;;;;;;6.32;5.93;;;27.80;35.10;;;;;;20529;6832;338882;-70
2022/05/10 09:09:53;;;;;;;6.23;5.80;;;28.00;34.60;;;;;;20748;6832;116996;-69
2022/05/10 09:12:21;;;;;;;6.07;5.53;;;28.00;35.50;;;;;;20316;6832;300772;-69
2022/05/10 09:14:50;;;;;;;6.60;6.10;;;28.10;35.60;;;;;;20534;6832;311276;-69
2022/05/10 09:17:15;;;;;;;5.87;5.30;;;28.40;34.50;;;;;;20665;6832;117012;-70
2022/05/10 09:19:41;;;;;;;5.97;5.60;;;28.40;35.10;;;;;;20745;6832;117116;-71
2022/05/10 09:22:40;;;;;;;5.82;5.53;;;28.40;35.30;;;;;;20529;6832;277146;-69
2022/05/10 09:25:05;;;;;;;5.43;5.23;;;28.60;33.20;;;;;;20545;6832;306899;-69
2022/05/10 09:27:32;;;;;;;5.87;5.43;;;29.00;34.00;;;;;;20718;6832;116889;-69
2022/05/10 09:29:57;;;;;;;5.70;5.40;;;29.00;34.00;;;;;;20735;6832;116959;-70
2022/05/10 09:35:23;;;;;;;9.23;5.20;;;29.10;32.70;;;;;;20765;6832;116947;-69
2022/05/10 09:37:48;;;;;;;5.40;5.10;;;29.10;32.70;;;;;;20534;6830;307708;-69
2022/05/10 09:40:40;;;;;;;5.50;5.00;;;29.30;33.80;;;;;;20523;6831;307265;-68
2022/05/10 09:43:26;;;;;;;5.30;5.10;;;29.60;31.80;;;;;;20717;6832;117292;-69
2022/05/10 09:46:11;;;;;;;4.63;4.43;;;29.60;31.70;;;;;;20531;6832;307513;-75
2022/05/10 09:48:38;;;;;;;4.87;4.57;;;29.70;29.40;;;;;;20417;6832;321260;-70
2022/05/10 09:51:26;;;;;;;4.93;4.43;;;29.90;28.90;;;;;;20769;6832;67807;-70
2022/05/10 09:53:54;;;;;;;4.60;4.30;;;29.60;29.90;;;;;;20732;6832;117905;-70
2022/05/10 09:56:22;;;;;;;4.90;4.55;;;29.60;29.90;;;;;;20546;6832;306637;-71
2022/05/10 09:58:52;;;;;;;4.97;4.67;;;29.90;29.30;;;;;;20545;6832;279467;-70
2022/05/10 10:01:18;;;;;;;4.90;4.50;;;29.80;29.20;;;;;;20528;6832;306510;-70
2022/05/10 10:03:43;;;;;;;4.50;4.30;;;30.10;29.90;;;;;;20470;6832;306328;-70
2022/05/10 10:06:15;;;;;;;5.20;4.70;;;30.20;31.00;;;;;;20732;6832;116832;-70
2022/05/10 10:08:41;;;;;;;4.50;4.20;;;30.30;29.60;;;;;;20519;6832;283457;-71
2022/05/10 10:11:10;;;;;;;4.73;4.43;;;30.20;29.50;;;;;;20518;6832;320070;-74
2022/05/10 10:13:37;;;;;;;5.03;4.60;;;30.30;30.10;;;;;;20716;6832;117724;-69
2022/05/10 10:16:01;;;;;;;4.30;4.07;;;30.30;29.50;;;;;;20724;6832;117355;-70
2022/05/10 10:18:37;;;;;;;4.57;4.28;;;30.00;29.30;;;;;;20553;6832;277000;-71
2022/05/10 10:21:02;;;;;;;4.50;4.30;;;30.00;28.20;;;;;;20539;6832;277054;-72
2022/05/10 10:23:28;;;;;;;4.67;4.47;;;30.20;29.10;;;;;;20754;6832;116806;-71
2022/05/10 10:25:57;;;;;;;5.00;4.60;;;30.10;29.40;;;;;;20521;6832;308750;-71
2022/05/10 10:28:25;;;;;;;7.93;5.43;;;30.20;29.10;;;;;;20658;6832;117493;-72
2022/05/10 10:31:20;;;;;;;4.53;4.23;;;30.10;29.30;;;;;;20493;6832;306866;-72
2022/05/10 10:33:46;;;;;;;3.50;3.30;;;30.20;29.20;;;;;;20726;6832;117158;-73
2022/05/10 10:36:18;;;;;;;3.33;3.13;;;30.10;28.60;;;;;;20497;6832;277784;-74
2022/05/10 10:38:55;;;;;;;3.20;3.00;;;30.10;26.80;;;;;;20720;6832;116941;-72
2022/05/10 10:41:28;;;;;;;3.40;3.20;;;30.10;26.70;;;;;;20477;6832;281233;-73
2022/05/10 10:43:57;;;;;;;3.90;3.70;;;30.20;26.80;;;;;;20519;6832;306719;-71
2022/05/10 10:46:29;;;;;;;4.10;3.80;;;30.30;26.70;;;;;;20740;6832;123267;-72
2022/05/10 10:49:11;;;;;;;3.95;3.67;;;30.20;27.80;;;;;;20541;6830;278212;-74
2022/05/10 10:51:36;;;;;;;3.90;3.60;;;30.20;27.00;;;;;;20746;6831;117345;-72
2022/05/10 10:54:02;;;;;;;3.50;3.30;;;30.10;27.30;;;;;;20718;6832;117511;-78
2022/05/10 10:56:30;;;;;;;3.93;3.73;;;29.80;27.50;;;;;;20755;6832;117239;-75
2022/05/10 10:59:29;;;;;;;3.13;3.00;;;29.60;27.50;;;;;;20427;6832;115764;-77
2022/05/10 11:02:02;;;;;;;3.80;3.60;;;29.40;27.90;;;;;;20537;6832;281188;-72
2022/05/10 11:04:36;;;;;;;4.50;3.70;;;29.60;28.00;;;;;;20519;6832;339737;-72
2022/05/10 11:07:02;;;;;;;3.20;3.00;;;30.00;26.50;;;;;;20739;6832;116788;-73
2022/05/10 11:09:54;;;;;;;3.33;3.17;;;30.00;27.00;;;;;;20528;6832;306233;-74
2022/05/10 11:12:40;;;;;;;3.07;2.87;;;30.20;27.50;;;;;;20752;6832;117023;-72
2022/05/10 11:15:05;;;;;;;3.10;3.00;;;30.20;27.50;;;;;;20757;6832;116765;-72
2022/05/10 11:18:12;;;;;;;2.70;2.60;;;30.00;26.80;;;;;;20743;6832;117355;-72
2022/05/10 11:20:47;;;;;;;3.33;3.10;;;30.00;26.70;;;;;;20542;6832;301459;-71
2022/05/10 11:23:12;;;;;;;3.30;3.10;;;30.30;26.30;;;;;;20727;6832;116752;-71
2022/05/10 11:25:38;;;;;;;3.50;3.30;;;30.40;26.50;;;;;;20735;6832;117667;-72
2022/05/10 11:28:30;;;;;;;3.40;3.20;;;30.30;26.40;;;;;;20496;6832;308018;-71
2022/05/10 11:31:02;;;;;;;3.30;3.20;;;30.30;25.70;;;;;;20726;6832;117296;-72
2022/05/10 11:33:29;;;;;;;3.20;3.10;;;30.30;26.60;;;;;;20734;6832;117211;-71
2022/05/10 11:35:57;;;;;;;3.50;3.30;;;30.20;27.30;;;;;;20504;6832;311880;-71
2022/05/10 11:38:26;;;;;;;2.80;2.70;;;30.30;26.20;;;;;;20749;6832;117087;-71
2022/05/10 11:41:31;;;;;;;3.15;3.05;;;30.20;26.20;;;;;;20529;6832;277004;-70
2022/05/10 11:44:13;;;;;;;2.80;2.70;;;30.30;26.10;;;;;;20737;6832;119913;-71
2022/05/10 11:46:48;;;;;;;3.30;3.10;;;30.20;25.80;;;;;;20551;6832;282707;-71
2022/05/10 11:49:43;;;;;;;3.33;2.93;;;30.30;25.40;;;;;;20732;6832;116761;-71
2022/05/10 11:52:45;;;;;;;3.47;3.10;;;30.30;25.50;;;;;;20532;6832;306924;-71
2022/05/10 11:55:17;;;;;;;3.60;3.30;;;30.40;26.20;;;;;;20544;6832;295019;-71
2022/05/10 11:57:43;;;;;;;3.60;3.40;;;30.70;25.30;;;;;;20767;6832;122138;-72
2022/05/10 12:00:31;;;;;;;3.55;3.28;;;30.60;25.30;;;;;;20530;6830;282031;-71
2022/05/10 12:02:56;;;;;;;3.60;3.40;;;30.50;26.50;;;;;;20547;6831;289348;-71
2022/05/10 12:05:23;;;;;;;3.67;3.47;;;30.60;25.50;;;;;;20760;6831;117613;-71
2022/05/10 12:07:49;;;;;;;3.40;3.20;;;30.40;25.80;;;;;;20535;6832;277635;-71
2022/05/10 12:10:44;;;;;;;3.50;3.30;;;30.30;26.50;;;;;;20530;6832;306368;-72
2022/05/10 12:22:09;;;;;;;2.93;2.73;;;30.40;25.80;;;;;;20742;6832;122543;-71
2022/05/10 12:24:44;;;;;;;3.30;3.00;;;30.00;26.20;;;;;;20764;6832;117208;-70
2022/05/10 12:27:10;;;;;;;3.30;3.10;;;29.80;26.10;;;;;;20514;6832;306191;-71
2022/05/10 12:29:38;;;;;;;3.70;3.33;;;29.90;25.50;;;;;;20760;6832;116844;-70
2022/05/10 12:32:33;;;;;;;3.50;3.40;;;29.90;26.30;;;;;;20739;6832;117613;-71
2022/05/10 12:35:04;;;;;;;3.87;3.57;;;29.80;26.70;;;;;;20550;6832;281280;-71
2022/05/10 12:37:28;;;;;;;3.75;3.55;;;30.00;27.00;;;;;;20528;6832;336107;-71
2022/05/10 12:40:00;;;;;;;3.90;3.60;;;30.30;27.50;;;;;;20535;6832;277489;-71
2022/05/10 12:42:31;;;;;;;4.07;3.87;;;30.50;27.20;;;;;;20530;6832;310855;-71
2022/05/10 12:45:14;;;;;;;3.93;3.83;;;30.80;26.10;;;;;;20733;6832;115890;-70
2022/05/10 12:47:51;;;;;;;3.90;3.70;;;30.70;26.70;;;;;;20752;6832;117182;-71
2022/05/10 12:50:38;;;;;;;3.50;3.40;;;30.40;27.20;;;;;;20721;6832;120656;-70
2022/05/10 12:53:24;;;;;;;4.27;3.93;;;30.20;27.90;;;;;;20547;6832;277226;-72
2022/05/10 12:55:49;;;;;;;4.10;3.83;;;30.20;27.70;;;;;;20753;6832;117335;-70
2022/05/10 12:58:18;;;;;;;5.33;3.70;;;30.20;28.00;;;;;;20734;6832;117805;-72
2022/05/10 13:00:44;;;;;;;4.00;3.67;;;30.00;27.90;;;;;;20752;6832;116922;-71
2022/05/10 13:03:09;;;;;;;3.53;3.33;;;29.80;28.10;;;;;;20543;6832;311361;-71